createdAt,value
2018-04-11T00:00:29.909Z,0
2018-04-11T00:01:10.263Z,0
2018-04-11T00:01:50.644Z,0
2018-04-11T00:02:31.121Z,0
2018-04-11T00:03:11.532Z,0
2018-04-11T00:03:51.976Z,0
2018-04-11T00:04:32.384Z,0
2018-04-11T00:05:12.804Z,0
2018-04-11T00:05:53.152Z,0
2018-04-11T00:06:33.707Z,0
2018-04-11T00:07:14.098Z,0
2018-04-11T00:07:54.484Z,0
2018-04-11T00:08:34.924Z,0
2018-04-11T00:09:15.326Z,0
2018-04-11T00:09:55.856Z,0
2018-04-11T00:10:36.176Z,0
2018-04-11T00:11:16.611Z,0
2018-04-11T00:11:57.065Z,0
2018-04-11T00:12:37.536Z,0
2018-04-11T00:13:17.895Z,0
2018-04-11T00:13:58.268Z,0
2018-04-11T00:14:38.622Z,0
2018-04-11T00:15:19.056Z,0
2018-04-11T00:15:59.514Z,0
2018-04-11T00:16:40.116Z,0
2018-04-11T00:17:20.850Z,0
2018-04-11T00:18:01.121Z,0
2018-04-11T00:18:41.541Z,0
2018-04-11T00:19:21.927Z,0
2018-04-11T00:20:02.293Z,0
2018-04-11T00:20:42.624Z,0
2018-04-11T00:21:23.044Z,0
2018-04-11T00:22:03.765Z,0
2018-04-11T00:22:43.775Z,0
2018-04-11T00:23:24.646Z,0
2018-04-11T00:24:04.994Z,0
2018-04-11T00:24:45.428Z,0
2018-04-11T00:25:25.739Z,0
2018-04-11T00:26:06.157Z,0
2018-04-11T00:26:46.640Z,0
2018-04-11T00:27:26.938Z,0
2018-04-11T00:28:07.404Z,0
2018-04-11T00:28:47.815Z,0
2018-04-11T00:29:28.296Z,0
2018-04-11T00:30:08.698Z,0
2018-04-11T00:30:49.223Z,0
2018-04-11T00:31:29.536Z,0
2018-04-11T00:32:09.903Z,0
2018-04-11T00:32:50.296Z,0
2018-04-11T00:33:30.696Z,0
2018-04-11T00:34:11.015Z,0
2018-04-11T00:34:51.426Z,0
2018-04-11T00:35:31.841Z,0
2018-04-11T00:36:12.182Z,0
2018-04-11T00:36:52.703Z,0
2018-04-11T00:37:33.020Z,0
2018-04-11T00:38:13.498Z,0
2018-04-11T00:38:53.827Z,0
2018-04-11T00:39:34.236Z,0
2018-04-11T00:40:14.632Z,0
2018-04-11T00:40:55.012Z,0
2018-04-11T00:41:35.367Z,0
2018-04-11T00:42:15.778Z,0
2018-04-11T00:42:56.145Z,0
2018-04-11T00:43:36.529Z,0
2018-04-11T00:44:16.982Z,0
2018-04-11T00:44:57.324Z,0
2018-04-11T00:45:37.774Z,0
2018-04-11T00:46:18.193Z,0
2018-04-11T00:46:58.552Z,0
2018-04-11T00:47:38.979Z,0
2018-04-11T00:48:19.343Z,0
2018-04-11T00:48:59.737Z,0
2018-04-11T00:49:40.124Z,0
2018-04-11T00:50:20.531Z,0
2018-04-11T00:51:00.962Z,0
2018-04-11T00:51:41.295Z,0
2018-04-11T00:52:21.648Z,0
2018-04-11T00:53:02.103Z,0
2018-04-11T00:53:42.538Z,0
2018-04-11T00:54:22.873Z,0
2018-04-11T00:55:03.304Z,0
2018-04-11T00:55:43.651Z,0
2018-04-11T00:56:24.000Z,0
2018-04-11T00:57:04.429Z,0
2018-04-11T00:57:44.792Z,0
2018-04-11T00:58:25.201Z,0
2018-04-11T00:59:05.587Z,0
2018-04-11T00:59:46.044Z,0
2018-04-11T01:00:26.382Z,0
2018-04-11T01:01:06.815Z,0
2018-04-11T01:01:47.227Z,0
2018-04-11T01:02:27.650Z,0
2018-04-11T01:03:07.996Z,0
2018-04-11T01:03:48.428Z,0
2018-04-11T01:04:28.814Z,0
2018-04-11T01:05:09.235Z,0
2018-04-11T01:05:49.657Z,0
2018-04-11T01:06:29.982Z,0
2018-04-11T01:07:10.359Z,0
2018-04-11T01:07:50.812Z,0
2018-04-11T01:08:31.170Z,0
2018-04-11T01:09:11.566Z,0
2018-04-11T01:09:52.032Z,0
2018-04-11T01:10:32.376Z,0
2018-04-11T01:11:12.801Z,0
2018-04-11T01:11:53.162Z,0
2018-04-11T01:12:33.548Z,0
2018-04-11T01:13:13.933Z,0
2018-04-11T01:13:54.336Z,0
2018-04-11T01:14:34.771Z,0
2018-04-11T01:15:15.149Z,0
2018-04-11T01:15:55.530Z,0
2018-04-11T01:16:35.921Z,0
2018-04-11T01:17:16.308Z,0
2018-04-11T01:17:56.687Z,0
2018-04-11T01:18:37.136Z,0
2018-04-11T01:19:17.478Z,0
2018-04-11T01:19:57.884Z,0
2018-04-11T01:20:38.268Z,0
2018-04-11T01:21:18.713Z,0
2018-04-11T01:21:59.233Z,0
2018-04-11T01:22:39.484Z,0
2018-04-11T01:23:19.845Z,0
2018-04-11T01:24:00.253Z,0
2018-04-11T01:24:40.643Z,0
2018-04-11T01:25:21.099Z,0
2018-04-11T01:26:01.415Z,0
2018-04-11T01:26:41.768Z,0
2018-04-11T01:27:22.201Z,0
2018-04-11T01:28:02.583Z,0
2018-04-11T01:28:43.005Z,0
2018-04-11T01:29:23.360Z,0
2018-04-11T01:30:03.791Z,0
2018-04-11T01:30:44.233Z,0
2018-04-11T01:31:24.541Z,0
2018-04-11T01:32:04.982Z,0
2018-04-11T01:32:45.338Z,0
2018-04-11T01:33:25.734Z,0
2018-04-11T01:34:06.160Z,0
2018-04-11T01:34:46.506Z,0
2018-04-11T01:35:26.928Z,0
2018-04-11T01:36:07.316Z,0
2018-04-11T01:36:47.688Z,0
2018-04-11T01:37:28.153Z,0
2018-04-11T01:38:08.567Z,0
2018-04-11T01:38:48.931Z,0
2018-04-11T01:39:29.295Z,0
2018-04-11T01:40:09.696Z,0
2018-04-11T01:40:50.061Z,0
2018-04-11T01:41:30.489Z,0
2018-04-11T01:42:10.851Z,0
2018-04-11T01:42:51.310Z,0
2018-04-11T01:43:32.242Z,0
2018-04-11T01:44:14.187Z,0
2018-04-11T01:44:55.270Z,0
2018-04-11T01:45:36.022Z,0
2018-04-11T01:46:16.622Z,0
2018-04-11T01:46:56.954Z,0
2018-04-11T01:47:37.538Z,0
2018-04-11T01:48:17.989Z,0
2018-04-11T01:48:58.623Z,0
2018-04-11T01:49:38.908Z,0
2018-04-11T01:50:19.309Z,0
2018-04-11T01:50:59.749Z,0
2018-04-11T01:51:42.756Z,0
2018-04-11T01:52:23.765Z,0
2018-04-11T01:53:13.473Z,0
2018-04-11T01:53:52.308Z,0
2018-04-11T01:54:33.094Z,0
2018-04-11T01:55:13.583Z,0
2018-04-11T01:55:54.168Z,0
2018-04-11T01:56:34.494Z,0
2018-04-11T01:57:14.836Z,0
2018-04-11T01:57:55.304Z,0
2018-04-11T01:58:35.667Z,0
2018-04-11T01:59:16.143Z,0
2018-04-11T01:59:56.466Z,0
2018-04-11T02:00:36.878Z,0
2018-04-11T02:01:19.797Z,0
2018-04-11T02:02:00.181Z,0
2018-04-11T02:02:40.830Z,0
2018-04-11T02:03:21.321Z,0
2018-04-11T02:04:01.815Z,0
2018-04-11T02:04:42.103Z,0
2018-04-11T02:05:22.978Z,0
2018-04-11T02:06:03.225Z,0
2018-04-11T02:06:43.619Z,0
2018-04-11T02:07:24.277Z,0
2018-04-11T02:08:04.466Z,0
2018-04-11T02:08:44.980Z,0
2018-04-11T02:09:25.360Z,0
2018-04-11T02:10:07.363Z,0
2018-04-11T02:10:47.802Z,0
2018-04-11T02:11:28.208Z,0
2018-04-11T02:12:08.627Z,0
2018-04-11T02:12:48.999Z,0
2018-04-11T02:13:29.411Z,0
2018-04-11T02:14:09.771Z,0
2018-04-11T02:14:50.163Z,0
2018-04-11T02:15:30.573Z,0
2018-04-11T02:16:11.016Z,0
2018-04-11T02:16:51.409Z,0
2018-04-11T02:17:31.752Z,0
2018-04-11T02:18:12.173Z,0
2018-04-11T02:18:52.594Z,0
2018-04-11T02:19:33.047Z,0
2018-04-11T02:20:13.357Z,0
2018-04-11T02:20:53.841Z,0
2018-04-11T02:21:34.211Z,0
2018-04-11T02:22:14.562Z,0
2018-04-11T02:22:54.964Z,0
2018-04-11T02:23:35.391Z,0
2018-04-11T02:24:15.762Z,0
2018-04-11T02:24:56.172Z,0
2018-04-11T02:25:36.526Z,0
2018-04-11T02:26:16.958Z,0
2018-04-11T02:26:57.362Z,0
2018-04-11T02:27:37.761Z,0
2018-04-11T02:28:18.177Z,0
2018-04-11T02:28:58.553Z,0
2018-04-11T02:29:38.945Z,0
2018-04-11T02:30:19.332Z,0
2018-04-11T02:30:59.825Z,0
2018-04-11T02:31:40.158Z,0
2018-04-11T02:32:20.605Z,0
2018-04-11T02:33:00.975Z,0
2018-04-11T02:33:41.375Z,0
2018-04-11T02:34:23.105Z,0
2018-04-11T02:35:03.257Z,0
2018-04-11T02:35:43.629Z,0
2018-04-11T02:36:24.039Z,0
2018-04-11T02:37:04.442Z,0
2018-04-11T02:37:44.858Z,0
2018-04-11T02:38:25.298Z,0
2018-04-11T02:39:05.688Z,0
2018-04-11T02:39:46.107Z,0
2018-04-11T02:40:26.482Z,0
2018-04-11T02:41:06.900Z,0
2018-04-11T02:41:47.275Z,0
2018-04-11T02:42:27.632Z,0
2018-04-11T02:43:08.089Z,0
2018-04-11T02:43:48.462Z,0
2018-04-11T02:44:28.824Z,0
2018-04-11T02:45:09.244Z,0
2018-04-11T02:45:49.608Z,0
2018-04-11T02:46:30.027Z,0
2018-04-11T02:47:10.514Z,0
2018-04-11T02:47:50.889Z,0
2018-04-11T02:48:31.263Z,0
2018-04-11T02:49:11.614Z,0
2018-04-11T02:49:52.012Z,0
2018-04-11T02:50:32.400Z,0
2018-04-11T02:51:12.802Z,0
2018-04-11T02:51:53.204Z,0
2018-04-11T02:52:33.578Z,0
2018-04-11T02:53:13.963Z,0
2018-04-11T02:53:54.396Z,0
2018-04-11T02:54:34.831Z,0
2018-04-11T02:55:15.247Z,0
2018-04-11T02:55:55.685Z,0
2018-04-11T02:56:36.042Z,0
2018-04-11T02:57:16.432Z,0
2018-04-11T02:57:56.837Z,0
2018-04-11T02:58:37.226Z,0
2018-04-11T02:59:17.618Z,0
2018-04-11T02:59:58.021Z,0
2018-04-11T03:00:38.456Z,0
2018-04-11T03:01:18.852Z,0
2018-04-11T03:01:59.288Z,0
2018-04-11T03:02:39.761Z,0
2018-04-11T03:03:20.104Z,0
2018-04-11T03:04:00.506Z,0
2018-04-11T03:04:40.905Z,0
2018-04-11T03:05:21.341Z,0
2018-04-11T03:06:01.784Z,0
2018-04-11T03:06:42.993Z,0
2018-04-11T03:07:22.634Z,0
2018-04-11T03:08:03.024Z,0
2018-04-11T03:08:43.431Z,0
2018-04-11T03:09:23.874Z,0
2018-04-11T03:10:04.256Z,0
2018-04-11T03:10:44.653Z,0
2018-04-11T03:11:25.075Z,0
2018-04-11T03:12:05.479Z,0
2018-04-11T03:12:45.853Z,0
2018-04-11T03:13:26.287Z,0
2018-04-11T03:14:06.708Z,0
2018-04-11T03:14:47.154Z,0
2018-04-11T03:15:27.554Z,0
2018-04-11T03:16:07.910Z,0
2018-04-11T03:16:48.324Z,0
2018-04-11T03:17:28.711Z,0
2018-04-11T03:18:09.147Z,0
2018-04-11T03:18:49.535Z,0
2018-04-11T03:19:29.941Z,0
2018-04-11T03:20:10.344Z,0
2018-04-11T03:20:50.772Z,0
2018-04-11T03:21:31.199Z,0
2018-04-11T03:22:11.547Z,0
2018-04-11T03:22:51.966Z,0
2018-04-11T03:23:32.375Z,0
2018-04-11T03:24:12.848Z,0
2018-04-11T03:24:53.194Z,0
2018-04-11T03:25:33.595Z,0
2018-04-11T03:26:14.078Z,0
2018-04-11T03:26:54.412Z,0
2018-04-11T03:29:34.212Z,0
2018-04-11T03:30:18.699Z,0
2018-04-11T03:30:58.813Z,0
2018-04-11T03:31:39.252Z,0
2018-04-11T03:32:19.689Z,0
2018-04-11T03:33:00.121Z,0
2018-04-11T03:33:40.507Z,0
2018-04-11T03:34:20.911Z,0
2018-04-11T03:35:01.313Z,0
2018-04-11T03:35:41.727Z,0
2018-04-11T03:36:22.092Z,0
2018-04-11T03:37:02.473Z,0
2018-04-11T03:37:42.892Z,0
2018-04-11T03:38:23.287Z,0
2018-04-11T03:39:03.694Z,0
2018-04-11T03:39:44.130Z,0
2018-04-11T03:40:24.513Z,0
2018-04-11T03:41:04.953Z,0
2018-04-11T03:41:45.325Z,0
2018-04-11T03:42:25.733Z,0
2018-04-11T03:43:06.110Z,0
2018-04-11T03:43:46.511Z,0
2018-04-11T03:44:26.904Z,0
2018-04-11T03:45:07.301Z,0
2018-04-11T03:45:47.717Z,0
2018-04-11T03:46:28.118Z,0
2018-04-11T03:47:08.503Z,0
2018-04-11T03:47:48.943Z,0
2018-04-11T03:48:29.317Z,0
2018-04-11T03:49:09.729Z,0
2018-04-11T03:49:50.105Z,0
2018-04-11T03:50:30.507Z,0
2018-04-11T03:51:10.905Z,0
2018-04-11T03:51:51.325Z,0
2018-04-11T03:52:31.753Z,0
2018-04-11T03:53:12.180Z,0
2018-04-11T03:53:52.521Z,0
2018-04-11T03:54:32.914Z,0
2018-04-11T03:55:13.338Z,0
2018-04-11T03:55:53.765Z,0
2018-04-11T03:56:34.113Z,0
2018-04-11T03:57:14.550Z,0
2018-04-11T03:57:54.939Z,0
2018-04-11T03:58:35.323Z,0
2018-04-11T03:59:15.757Z,0
2018-04-11T03:59:56.143Z,0
2018-04-11T04:00:36.552Z,0
2018-04-11T04:01:16.951Z,0
2018-04-11T04:41:43.570Z,8
2018-04-11T04:42:21.749Z,8
2018-04-11T04:43:02.143Z,8
2018-04-11T04:43:42.550Z,4
2018-04-11T04:44:22.963Z,4
2018-04-11T04:45:03.395Z,4
2018-04-11T04:45:43.831Z,4
2018-04-11T04:46:24.158Z,8
2018-04-11T04:47:04.591Z,8
2018-04-11T04:47:45.010Z,8
2018-04-11T04:48:25.360Z,8
2018-04-11T04:49:05.765Z,8
2018-04-11T04:49:46.184Z,8
2018-04-11T04:50:26.589Z,12
2018-04-11T04:51:07.087Z,8
2018-04-11T04:51:47.509Z,8
2018-04-11T04:52:27.911Z,12
2018-04-11T04:53:08.271Z,12
2018-04-11T04:53:48.636Z,8
2018-04-11T04:54:29.136Z,12
2018-04-11T04:55:09.539Z,12
2018-04-11T04:55:49.821Z,12
2018-04-11T04:56:30.279Z,16
2018-04-11T04:57:10.949Z,16
2018-04-11T04:57:51.142Z,12
2018-04-11T04:58:31.614Z,12
2018-04-11T04:59:12.119Z,12
2018-04-11T04:59:52.461Z,16
2018-04-11T05:00:32.867Z,16
2018-04-11T05:01:13.271Z,16
2018-04-11T05:01:54.803Z,16
2018-04-11T05:02:35.427Z,16
2018-04-11T05:03:16.684Z,16
2018-04-11T05:03:57.220Z,16
2018-04-11T05:04:37.959Z,16
2018-04-11T05:05:18.332Z,16
2018-04-11T05:05:58.806Z,20
2018-04-11T05:06:39.217Z,20
2018-04-11T05:07:20.520Z,16
2018-04-11T05:08:01.449Z,16
2018-04-11T05:08:41.899Z,16
2018-04-11T05:09:22.610Z,16
2018-04-11T05:10:04.007Z,20
2018-04-11T05:10:44.523Z,20
2018-04-11T05:11:24.916Z,20
2018-04-11T05:12:05.337Z,20
2018-04-11T05:12:45.805Z,20
2018-04-11T05:13:27.032Z,20
2018-04-11T05:14:07.584Z,24
2018-04-11T05:14:47.901Z,24
2018-04-11T05:15:28.278Z,20
2018-04-11T05:16:08.689Z,24
2018-04-11T05:16:49.129Z,24
2018-04-11T05:17:30.056Z,24
2018-04-11T05:18:12.344Z,24
2018-04-11T05:18:52.810Z,28
2018-04-11T05:19:33.236Z,24
2018-04-11T05:20:13.583Z,28
2018-04-11T05:20:54.035Z,28
2018-04-11T05:21:34.428Z,28
2018-04-11T05:22:14.813Z,24
2018-04-11T05:22:55.282Z,28
2018-04-11T05:23:35.700Z,24
2018-04-11T05:24:16.049Z,24
2018-04-11T05:24:56.553Z,24
2018-04-11T05:25:36.868Z,24
2018-04-11T05:26:17.298Z,20
2018-04-11T05:26:57.676Z,20
2018-04-11T05:27:38.089Z,20
2018-04-11T05:28:18.472Z,20
2018-04-11T05:28:58.903Z,20
2018-04-11T05:29:39.273Z,20
2018-04-11T05:30:19.681Z,20
2018-04-11T05:31:00.039Z,20
2018-04-11T05:31:40.453Z,20
2018-04-11T05:32:20.855Z,20
2018-04-11T05:33:01.237Z,20
2018-04-11T05:33:41.643Z,20
2018-04-11T05:34:22.079Z,20
2018-04-11T05:35:02.465Z,20
2018-04-11T05:35:43.017Z,20
2018-04-11T05:36:23.421Z,20
2018-04-11T05:37:03.867Z,16
2018-04-11T05:37:44.223Z,16
2018-04-11T05:38:24.594Z,16
2018-04-11T05:39:05.019Z,16
2018-04-11T05:39:45.424Z,12
2018-04-11T05:40:26.561Z,16
2018-04-11T05:41:06.905Z,16
2018-04-11T05:41:47.590Z,12
2018-04-11T05:42:27.812Z,12
2018-04-11T05:43:08.153Z,12
2018-04-11T05:43:48.594Z,12
2018-04-11T05:44:29.106Z,12
2018-04-11T05:45:09.585Z,12
2018-04-11T05:45:50.031Z,16
2018-04-11T05:46:30.399Z,16
2018-04-11T05:47:10.918Z,12
2018-04-11T05:47:51.310Z,16
2018-04-11T05:48:31.751Z,16
2018-04-11T05:49:12.159Z,16
2018-04-11T05:49:53.281Z,16
2018-04-11T05:50:33.212Z,20
2018-04-11T05:51:13.552Z,20
2018-04-11T05:51:54.490Z,20
2018-04-11T05:52:34.451Z,20
2018-04-11T05:53:14.953Z,20
2018-04-11T05:53:55.665Z,20
2018-04-11T05:54:36.473Z,20
2018-04-11T05:55:16.665Z,20
2018-04-11T05:55:57.232Z,24
2018-04-11T05:56:37.496Z,20
2018-04-11T05:57:18.099Z,24
2018-04-11T05:57:58.455Z,24
2018-04-11T05:58:38.843Z,28
2018-04-11T05:59:20.067Z,28
2018-04-11T06:00:00.543Z,28
2018-04-11T06:00:41.128Z,28
2018-04-11T06:01:21.549Z,32
2018-04-11T06:02:02.340Z,32
2018-04-11T06:02:43.745Z,32
2018-04-11T06:03:24.207Z,32
2018-04-11T06:04:04.207Z,36
2018-04-11T06:04:45.696Z,36
2018-04-11T06:05:27.644Z,40
2018-04-11T06:06:16.015Z,40
2018-04-11T06:06:57.352Z,44
2018-04-11T06:07:38.457Z,48
2018-04-11T06:08:19.206Z,56
2018-04-11T06:09:00.388Z,60
2018-04-11T06:09:40.707Z,68
2018-04-11T06:10:21.717Z,72
2018-04-11T06:11:02.273Z,80
2018-04-11T06:26:31.378Z,220
2018-04-11T06:48:01.471Z,164
2018-04-11T07:02:08.411Z,144
2018-04-11T07:03:00.211Z,148
2018-04-11T07:26:37.443Z,204
2018-04-11T07:37:02.614Z,144
2018-04-11T07:42:24.928Z,176
2018-04-11T08:20:41.224Z,212
2018-04-11T08:23:51.506Z,224
2018-04-11T08:49:03.976Z,244
2018-04-11T08:49:44.833Z,244
2018-04-11T08:50:25.215Z,248
2018-04-11T08:51:06.469Z,252
2018-04-11T08:51:47.095Z,256
2018-04-11T08:52:27.783Z,260
2018-04-11T08:53:08.305Z,264
2018-04-11T08:53:49.214Z,272
2018-04-11T08:54:30.693Z,276
2018-04-11T08:55:10.609Z,276
2018-04-11T08:55:52.165Z,280
2018-04-11T08:56:32.572Z,280
2018-04-11T08:57:13.777Z,280
2018-04-11T08:57:54.129Z,288
2018-04-11T08:58:34.829Z,292
2018-04-11T08:59:15.243Z,296
2018-04-11T08:59:56.189Z,292
2018-04-11T09:00:36.399Z,288
2018-04-11T09:01:16.959Z,284
2018-04-11T09:01:57.797Z,280
2018-04-11T09:02:38.407Z,276
2018-04-11T09:03:18.851Z,268
2018-04-11T09:03:59.431Z,264
2018-04-11T09:04:40.778Z,256
2018-04-11T09:05:20.542Z,248
2018-04-11T09:06:00.956Z,248
2018-04-11T09:06:41.593Z,248
2018-04-11T09:07:22.144Z,252
2018-04-11T09:08:02.581Z,256
2018-04-11T09:08:43.081Z,264
2018-04-11T09:09:23.464Z,256
2018-04-11T09:10:04.786Z,264
2018-04-11T09:10:45.176Z,272
2018-04-11T09:11:25.611Z,272
2018-04-11T09:12:05.962Z,276
2018-04-11T09:12:46.434Z,280
2018-04-11T09:13:26.875Z,284
2018-04-11T09:14:07.316Z,288
2018-04-11T09:14:47.708Z,292
2018-04-11T09:15:28.252Z,304
2018-04-11T09:16:08.878Z,316
2018-04-11T09:16:49.497Z,328
2018-04-11T09:17:29.752Z,336
2018-04-11T09:18:10.340Z,344
2018-04-11T09:18:50.769Z,356
2018-04-11T09:19:31.312Z,364
2018-04-11T09:20:12.009Z,376
2018-04-11T09:20:52.259Z,388
2018-04-11T09:21:32.766Z,404
2018-04-11T09:22:13.432Z,408
2018-04-11T09:22:53.965Z,416
2018-04-11T09:23:34.696Z,432
2018-04-11T09:24:15.394Z,440
2018-04-11T09:24:56.311Z,452
2018-04-11T09:25:37.435Z,464
2018-04-11T09:26:17.861Z,472
2018-04-11T09:26:58.392Z,480
2018-04-11T09:27:38.770Z,488
2018-04-11T09:28:19.229Z,488
2018-04-11T09:29:01.342Z,480
2018-04-11T09:29:41.768Z,472
2018-04-11T09:30:22.210Z,456
2018-04-11T09:31:02.808Z,456
2018-04-11T09:31:43.424Z,456
2018-04-11T09:32:23.642Z,448
2018-04-11T09:33:04.270Z,440
2018-04-11T09:33:44.649Z,440
2018-04-11T09:34:25.385Z,432
2018-04-11T09:35:05.692Z,428
2018-04-11T09:35:46.724Z,424
2018-04-11T09:36:26.940Z,428
2018-04-11T09:37:07.458Z,432
2018-04-11T09:37:47.886Z,428
2018-04-11T09:38:28.388Z,424
2018-04-11T09:39:09.161Z,424
2018-04-11T09:39:49.919Z,432
2018-04-11T09:40:30.322Z,436
2018-04-11T09:41:11.038Z,444
2018-04-11T09:41:51.612Z,448
2018-04-11T09:42:31.993Z,452
2018-04-11T09:43:12.537Z,456
2018-04-11T09:43:52.927Z,456
2018-04-11T09:44:33.506Z,456
2018-04-11T09:45:13.997Z,464
2018-04-11T09:45:54.597Z,476
2018-04-11T09:46:36.331Z,492
2018-04-11T09:47:16.542Z,512
2018-04-11T09:47:57.097Z,520
2018-04-11T09:48:38.281Z,524
2018-04-11T09:49:19.137Z,532
2018-04-11T09:49:59.704Z,540
2018-04-11T09:50:40.155Z,544
2018-04-11T09:51:20.543Z,544
2018-04-11T09:52:01.118Z,548
2018-04-11T09:52:41.472Z,548
2018-04-11T09:53:21.860Z,552
2018-04-11T09:54:02.296Z,552
2018-04-11T09:54:42.890Z,552
2018-04-11T09:55:23.175Z,560
2018-04-11T09:56:03.761Z,560
2018-04-11T09:56:44.195Z,564
2018-04-11T09:57:24.800Z,564
2018-04-11T09:58:05.389Z,564
2018-04-11T09:58:45.904Z,560
2018-04-11T09:59:26.586Z,556
2018-04-11T10:00:06.848Z,552
2018-04-11T10:00:47.208Z,552
2018-04-11T10:01:27.727Z,556
2018-04-11T10:02:09.817Z,564
2018-04-11T10:02:50.510Z,572
2018-04-11T10:43:58.339Z,552
2018-04-11T10:44:39.106Z,540
2018-04-11T10:45:20.035Z,516
2018-04-11T10:46:00.661Z,520
2018-04-11T10:46:41.641Z,524
2018-04-11T10:47:22.728Z,532
2018-04-11T10:48:02.869Z,516
2018-04-11T10:48:44.291Z,504
2018-04-11T10:49:24.951Z,504
2018-04-11T10:50:05.562Z,504
2018-04-11T10:50:46.104Z,496
2018-04-11T10:53:01.395Z,528
2018-04-11T10:53:41.991Z,540
2018-04-11T10:54:22.449Z,532
2018-04-11T10:55:03.097Z,540
2018-04-11T10:55:43.586Z,544
2018-04-11T10:56:24.027Z,540
2018-04-11T10:57:04.459Z,520
2018-04-11T10:57:44.809Z,520
2018-04-11T10:58:25.228Z,512
2018-04-11T10:59:05.719Z,512
2018-04-11T10:59:46.212Z,512
2018-04-11T11:00:26.789Z,508
2018-04-11T11:01:07.265Z,496
2018-04-11T11:01:47.667Z,488
2018-04-11T11:02:28.047Z,476
2018-04-11T11:03:08.812Z,472
2018-04-11T11:03:49.262Z,464
2018-04-11T11:04:29.634Z,448
2018-04-11T11:05:10.346Z,452
2018-04-11T11:05:50.843Z,448
2018-04-11T11:06:31.261Z,448
2018-04-11T11:07:11.861Z,432
2018-04-11T11:07:52.320Z,448
2018-04-11T11:08:32.785Z,464
2018-04-11T11:09:13.256Z,468
2018-04-11T11:09:53.703Z,468
2018-04-11T11:10:34.348Z,464
2018-04-11T11:11:14.733Z,460
2018-04-11T11:11:55.158Z,456
2018-04-11T11:12:35.584Z,456
2018-04-11T11:13:15.986Z,452
2018-04-11T11:13:56.442Z,452
2018-04-11T11:14:36.793Z,456
2018-04-11T11:15:17.312Z,452
2018-04-11T11:15:57.715Z,456
2018-04-11T11:16:38.174Z,464
2018-04-11T11:17:18.566Z,468
2018-04-11T11:17:59.011Z,464
2018-04-11T11:18:39.645Z,476
2018-04-11T11:19:20.117Z,508
2018-04-11T11:20:00.500Z,556
2018-04-11T11:20:40.901Z,588
2018-04-11T11:21:21.313Z,620
2018-04-11T11:22:01.739Z,648
2018-04-11T11:22:42.152Z,664
2018-04-11T11:23:22.630Z,688
2018-04-11T11:24:03.031Z,696
2018-04-11T11:24:43.450Z,728
2018-04-11T11:25:23.890Z,772
2018-04-11T11:26:04.279Z,800
2018-04-11T11:26:44.735Z,780
2018-04-11T11:27:25.096Z,808
2018-04-11T11:28:05.519Z,872
2018-04-11T11:28:45.971Z,912
2018-04-11T11:29:27.213Z,924
2018-04-11T11:30:07.135Z,992
2018-04-11T11:32:51.455Z,1260
2018-04-11T11:35:12.187Z,1436
2018-04-11T11:36:01.205Z,1504
2018-04-11T11:36:45.911Z,1560
2018-04-11T11:37:27.050Z,1604
2018-04-11T11:38:08.419Z,1644
2018-04-11T11:38:48.812Z,1684
2018-04-11T11:39:29.249Z,1716
2018-04-11T11:40:09.585Z,1744
2018-04-11T11:40:50.078Z,1748
2018-04-11T11:41:30.501Z,1692
2018-04-11T11:42:10.888Z,1596
2018-04-11T11:42:51.383Z,1560
2018-04-11T11:43:31.764Z,1596
2018-04-11T11:44:13.355Z,1580
2018-04-11T11:44:53.913Z,1520
2018-04-11T11:45:34.348Z,1472
2018-04-11T11:46:18.564Z,1416
2018-04-11T11:46:58.771Z,1348
2018-04-11T11:47:39.172Z,1280
2018-04-11T11:48:19.553Z,1200
2018-04-11T11:50:26.052Z,1184
2018-04-11T11:52:48.524Z,1040
2018-04-11T11:55:09.705Z,1208
2018-04-11T11:56:00.886Z,1292
2018-04-11T11:58:30.933Z,1380
2018-04-11T11:59:15.891Z,1400
2018-04-11T12:00:05.875Z,1452
2018-04-11T12:00:48.496Z,1520
2018-04-11T12:01:28.038Z,1572
2018-04-11T12:02:08.499Z,1604
2018-04-11T12:02:48.900Z,1620
2018-04-11T12:03:29.340Z,1632
2018-04-11T12:04:09.758Z,1644
2018-04-11T12:04:50.192Z,1676
2018-04-11T12:07:28.958Z,1764
2018-04-11T12:08:17.077Z,1752
2018-04-11T12:08:58.166Z,1732
2018-04-11T12:09:38.568Z,1720
2018-04-11T12:10:18.999Z,1684
2018-04-11T12:10:59.367Z,1648
2018-04-11T12:11:39.774Z,1616
2018-04-11T12:12:20.259Z,1576
2018-04-11T12:13:00.650Z,1576
2018-04-11T12:13:41.077Z,1588
2018-04-11T12:14:21.492Z,1600
2018-04-11T12:15:01.942Z,1604
2018-04-11T12:15:42.342Z,1596
2018-04-11T12:16:22.760Z,1580
2018-04-11T12:17:03.191Z,1540
2018-04-11T12:17:43.613Z,1508
2018-04-11T12:18:24.033Z,1500
2018-04-11T12:19:04.486Z,1496
2018-04-11T12:19:44.865Z,1476
2018-04-11T12:20:25.265Z,1464
2018-04-11T12:21:05.672Z,1432
2018-04-11T12:21:46.063Z,1384
2018-04-11T12:22:26.473Z,1368
2018-04-11T12:23:06.889Z,1348
2018-04-11T12:23:47.350Z,1340
2018-04-11T12:24:27.696Z,1284
2018-04-11T12:25:08.109Z,1252
2018-04-11T12:25:48.526Z,1228
2018-04-11T12:28:09.392Z,1368
2018-04-11T12:28:50.561Z,1340
2018-04-11T12:29:31.001Z,1300
2018-04-11T12:30:11.379Z,1260
2018-04-11T12:30:51.764Z,1212
2018-04-11T12:31:32.235Z,1144
2018-04-11T12:32:12.582Z,1072
2018-04-11T12:32:53.013Z,1008
2018-04-11T12:33:33.688Z,912
2018-04-11T12:34:14.178Z,808
2018-04-11T12:34:54.508Z,736
2018-04-11T12:37:09.356Z,540
2018-04-11T12:37:49.932Z,508
2018-04-11T12:40:22.978Z,504
2018-04-11T12:41:03.416Z,500
2018-04-11T12:41:43.792Z,484
2018-04-11T12:42:24.182Z,480
2018-04-11T12:43:04.625Z,468
2018-04-11T12:43:45.005Z,460
2018-04-11T12:45:43.023Z,440
2018-04-11T12:46:23.108Z,432
2018-04-11T12:47:03.497Z,428
2018-04-11T12:47:43.915Z,420
2018-04-11T12:48:24.608Z,416
2018-04-11T12:49:05.032Z,408
2018-04-11T12:49:45.495Z,412
2018-04-11T12:50:25.844Z,408
2018-04-11T12:52:45.644Z,424
2018-04-11T12:53:26.542Z,436
2018-04-11T12:54:06.972Z,432
2018-04-11T12:54:47.374Z,428
2018-04-11T12:55:27.778Z,412
2018-04-11T12:56:08.192Z,400
2018-04-11T12:58:06.065Z,388
2018-04-11T12:58:46.099Z,396
2018-04-11T12:59:26.494Z,404
2018-04-11T13:00:06.933Z,416
2018-04-11T13:00:47.470Z,420
2018-04-11T13:01:27.791Z,424
2018-04-11T13:02:08.217Z,428
2018-04-11T13:04:27.166Z,464
2018-04-11T13:05:07.569Z,480
2018-04-11T13:05:47.923Z,500
2018-04-11T13:06:28.428Z,524
2018-04-11T13:07:08.841Z,556
2018-04-11T13:07:49.336Z,604
2018-04-11T13:08:29.743Z,652
2018-04-11T13:09:10.270Z,696
2018-04-11T13:09:50.700Z,748
2018-04-11T13:12:26.488Z,940
2018-04-11T13:13:04.777Z,980
2018-04-11T13:13:45.406Z,1000
2018-04-11T13:14:25.851Z,1020
2018-04-11T13:15:06.349Z,1024
2018-04-11T13:17:41.944Z,980
2018-04-11T13:18:22.383Z,984
2018-04-11T13:19:02.744Z,996
2018-04-11T13:19:43.143Z,1008
2018-04-11T13:21:41.343Z,1036
2018-04-11T13:22:21.216Z,1044
2018-04-11T13:23:01.626Z,1048
2018-04-11T13:23:42.085Z,1044
2018-04-11T13:24:22.471Z,1028
2018-04-11T13:25:03.140Z,1000
2018-04-11T13:25:43.727Z,972
2018-04-11T13:26:24.239Z,940
2018-04-11T13:27:04.675Z,908
2018-04-11T13:27:45.091Z,880
2018-04-11T13:28:25.572Z,844
2018-04-11T13:29:06.211Z,812
2018-04-11T13:29:47.134Z,784
2018-04-11T13:30:27.875Z,764
2018-04-11T13:31:08.415Z,752
2018-04-11T13:31:48.849Z,760
2018-04-11T13:32:29.249Z,780
2018-04-11T13:33:09.713Z,820
2018-04-11T13:33:50.134Z,868
2018-04-11T13:34:30.473Z,912
2018-04-11T13:35:10.860Z,948
2018-04-11T13:35:51.381Z,972
2018-04-11T13:36:31.684Z,988
2018-04-11T13:37:12.112Z,996
2018-04-11T13:37:52.658Z,1012
2018-04-11T13:38:33.406Z,1024
2018-04-11T13:39:13.773Z,1040
2018-04-11T13:41:48.417Z,1040
2018-04-11T13:42:31.957Z,1056
2018-04-11T13:43:12.691Z,1092
2018-04-11T13:43:54.263Z,1148
2018-04-11T13:44:33.960Z,1196
2018-04-11T13:45:14.364Z,1224
2018-04-11T13:45:54.797Z,1228
2018-04-11T13:46:35.141Z,1212
2018-04-11T13:48:53.136Z,1096
2018-04-11T13:49:33.393Z,1056
2018-04-11T13:50:13.758Z,1040
2018-04-11T13:50:54.201Z,1036
2018-04-11T13:51:35.178Z,1032
2018-04-11T13:52:15.514Z,1028
2018-04-11T13:52:56.052Z,1028
2018-04-11T13:53:37.294Z,1020
2018-04-11T13:54:17.504Z,1016
2018-04-11T13:54:57.962Z,1008
2018-04-11T13:55:38.336Z,992
2018-04-11T13:56:18.767Z,972
2018-04-11T13:56:59.116Z,956
2018-04-11T13:57:39.553Z,936
2018-04-11T13:58:20.093Z,912
2018-04-11T13:59:00.464Z,884
2018-04-11T13:59:41.814Z,852
2018-04-11T14:00:21.516Z,820
2018-04-11T14:01:02.082Z,792
2018-04-11T14:01:42.459Z,764
2018-04-11T14:02:22.961Z,744
2018-04-11T14:03:03.359Z,740
2018-04-11T14:03:43.843Z,736